createdAt,value
2022-09-10T00:01:18.516Z,13.62
2022-09-10T00:03:45.900Z,13.61
2022-09-10T00:06:12.604Z,13.58
2022-09-10T00:08:40.011Z,13.62
2022-09-10T00:11:10.393Z,13.55
2022-09-10T00:13:39.386Z,13.50
2022-09-10T00:16:10.879Z,13.50
2022-09-10T00:18:39.123Z,13.50
2022-09-10T00:21:10.424Z,13.50
2022-09-10T00:23:37.426Z,13.60
2022-09-10T00:26:14.840Z,13.61
2022-09-10T00:28:43.042Z,13.59
2022-09-10T00:31:10.935Z,13.52
2022-09-10T00:33:37.806Z,13.52
2022-09-10T00:36:15.674Z,13.53
2022-09-10T00:38:42.173Z,13.55
2022-09-10T00:41:08.704Z,13.57
2022-09-10T00:44:07.598Z,13.52
2022-09-10T00:46:51.343Z,13.56
2022-09-10T00:49:40.861Z,13.50
2022-09-10T00:52:07.803Z,13.52
2022-09-10T00:54:37.155Z,13.55
2022-09-10T00:57:12.382Z,13.53
2022-09-10T00:59:46.402Z,13.54
2022-09-10T01:02:14.817Z,13.52
2022-09-10T01:04:42.872Z,13.54
2022-09-10T01:07:12.342Z,13.54
2022-09-10T01:09:40.676Z,13.52
2022-09-10T01:12:40.143Z,13.53
2022-09-10T01:15:28.764Z,13.53
2022-09-10T01:18:41.290Z,13.51
2022-09-10T01:21:46.755Z,13.32
2022-09-10T01:24:38.958Z,13.29
2022-09-10T01:27:26.594Z,13.31
2022-09-10T01:30:04.500Z,13.35
2022-09-10T01:32:54.527Z,13.36
2022-09-10T01:35:50.354Z,13.31
2022-09-10T01:38:38.763Z,13.34
2022-09-10T01:41:05.826Z,13.41
2022-09-10T01:43:33.171Z,13.46
2022-09-10T01:46:24.583Z,13.43
2022-09-10T01:49:27.512Z,13.40
2022-09-10T01:52:26.203Z,13.46
2022-09-10T01:54:52.531Z,13.50
2022-09-10T01:57:21.730Z,13.52
2022-09-10T02:00:08.650Z,13.56
2022-09-10T02:03:06.215Z,13.56
2022-09-10T02:05:37.160Z,13.60
2022-09-10T02:08:17.203Z,13.62
2022-09-10T02:10:59.191Z,13.65
2022-09-10T02:13:29.765Z,13.69
2022-09-10T02:15:56.654Z,13.72
2022-09-10T02:18:25.542Z,13.64
2022-09-10T02:20:56.013Z,13.62
2022-09-10T02:23:33.050Z,13.67
2022-09-10T02:25:59.528Z,13.67
2022-09-10T02:28:26.858Z,13.72
2022-09-10T02:30:53.311Z,13.74
2022-09-10T02:33:19.746Z,13.78
2022-09-10T02:35:47.725Z,13.80
2022-09-10T02:38:14.616Z,13.85
2022-09-10T02:40:43.097Z,13.82
2022-09-10T02:43:09.611Z,13.81
2022-09-10T02:45:37.458Z,13.88
2022-09-10T02:48:04.255Z,13.92
2022-09-10T02:50:31.948Z,13.94
2022-09-10T02:52:58.375Z,13.93
2022-09-10T02:55:25.231Z,13.96
2022-09-10T02:57:51.685Z,13.95
2022-09-10T03:00:20.133Z,13.94
2022-09-10T03:02:50.540Z,13.91
2022-09-10T03:05:17.880Z,13.95
2022-09-10T03:07:44.776Z,14.00
2022-09-10T03:10:11.543Z,14.01
2022-09-10T03:12:39.071Z,14.03
2022-09-10T03:15:06.852Z,14.05
2022-09-10T03:17:33.286Z,14.04
2022-09-10T03:19:59.873Z,14.06
2022-09-10T03:22:26.318Z,14.07
2022-09-10T03:24:53.137Z,14.08
2022-09-10T03:27:20.675Z,14.10
2022-09-10T03:29:47.441Z,14.10
2022-09-10T03:32:13.859Z,14.11
2022-09-10T03:34:40.299Z,14.06
2022-09-10T03:37:06.913Z,14.05
2022-09-10T03:39:33.388Z,14.03
2022-09-10T03:41:59.871Z,14.00
2022-09-10T03:44:26.332Z,13.97
2022-09-10T03:46:52.814Z,13.96
2022-09-10T03:49:19.286Z,14.01
2022-09-10T03:51:45.976Z,13.99
2022-09-10T03:54:13.840Z,13.98
2022-09-10T03:56:40.468Z,13.98
2022-09-10T03:59:07.039Z,14.03
2022-09-10T04:01:33.583Z,14.06
2022-09-10T04:04:00.052Z,14.05
2022-09-10T04:06:26.547Z,14.08
2022-09-10T04:08:53.009Z,14.08
2022-09-10T04:11:20.335Z,14.10
2022-09-10T04:13:48.402Z,14.07
2022-09-10T04:16:16.543Z,14.10
2022-09-10T04:18:43.092Z,14.10
2022-09-10T04:21:09.710Z,14.10
2022-09-10T04:23:36.211Z,14.11
2022-09-10T04:26:14.414Z,14.10
2022-09-10T04:28:41.678Z,14.04
2022-09-10T04:31:08.256Z,14.04
2022-09-10T04:33:34.965Z,14.00
2022-09-10T04:36:02.034Z,14.04
2022-09-10T04:38:30.286Z,14.07
2022-09-10T04:40:58.375Z,14.12
2022-09-10T04:43:25.839Z,14.14
2022-09-10T04:45:55.789Z,14.13
2022-09-10T04:48:23.603Z,14.17
2022-09-10T04:51:14.785Z,14.20
2022-09-10T04:53:37.851Z,14.14
2022-09-10T04:56:04.436Z,14.14
2022-09-10T04:58:34.260Z,14.10
2022-09-10T05:01:04.508Z,14.06
2022-09-10T05:03:31.019Z,14.04
2022-09-10T05:05:57.488Z,14.09
2022-09-10T05:08:24.020Z,14.17
2022-09-10T05:10:50.546Z,14.18
2022-09-10T05:13:17.631Z,14.17
2022-09-10T05:15:44.220Z,14.12
2022-09-10T05:18:10.869Z,14.10
2022-09-10T05:20:37.682Z,14.07
2022-09-10T05:23:04.289Z,14.01
2022-09-10T05:25:30.805Z,14.05
2022-09-10T05:27:57.290Z,14.09
2022-09-10T05:30:23.723Z,14.17
2022-09-10T05:32:53.448Z,14.17
2022-09-10T05:35:20.239Z,14.20
2022-09-10T05:37:46.683Z,14.26
2022-09-10T05:40:16.238Z,14.29
2022-09-10T05:42:42.927Z,14.36
2022-09-10T05:45:10.191Z,14.39
2022-09-10T05:47:37.883Z,14.40
2022-09-10T05:50:06.606Z,14.43
2022-09-10T05:52:33.136Z,14.44
2022-09-10T05:54:59.940Z,14.47
2022-09-10T05:57:26.673Z,14.50
2022-09-10T05:59:53.819Z,14.48
2022-09-10T06:02:24.118Z,14.51
2022-09-10T06:04:50.917Z,14.54
2022-09-10T06:07:17.828Z,14.55
2022-09-10T06:09:44.349Z,14.55
2022-09-10T06:12:10.802Z,14.60
2022-09-10T06:14:37.354Z,14.61
2022-09-10T06:17:04.330Z,14.62
2022-09-10T06:19:30.779Z,14.64
2022-09-10T06:21:57.436Z,14.69
2022-09-10T06:24:24.458Z,14.71
2022-09-10T06:26:50.960Z,14.72
2022-09-10T06:29:19.150Z,14.76
2022-09-10T06:31:47.446Z,14.79
2022-09-10T06:34:14.178Z,14.85
2022-09-10T06:36:41.383Z,14.90
2022-09-10T06:39:07.936Z,14.91
2022-09-10T06:41:34.573Z,14.93
2022-09-10T06:44:01.250Z,14.93
2022-09-10T06:49:14.998Z,14.87
2022-09-10T06:51:42.378Z,14.87
2022-09-10T06:54:08.899Z,14.94
2022-09-10T06:56:35.365Z,14.98
2022-09-10T06:59:02.770Z,15.00
2022-09-10T07:01:29.785Z,14.99
2022-09-10T07:03:59.320Z,14.99
2022-09-10T07:06:28.254Z,15.01
2022-09-10T07:08:58.487Z,15.00
2022-09-10T07:11:28.618Z,14.99
2022-09-10T07:13:55.136Z,15.02
2022-09-10T07:16:25.599Z,15.03
2022-09-10T07:18:55.723Z,15.12
2022-09-10T07:21:25.246Z,15.21
2022-09-10T07:23:57.564Z,15.23
2022-09-10T07:26:24.658Z,15.25
2022-09-10T07:28:52.098Z,15.33
2022-09-10T07:31:27.248Z,15.34
2022-09-10T07:33:55.166Z,15.44
2022-09-10T07:36:21.894Z,15.65
2022-09-10T07:39:03.191Z,15.70
2022-09-10T07:41:33.852Z,15.74
2022-09-10T07:44:00.328Z,15.83
2022-09-10T07:46:28.258Z,15.85
2022-09-10T07:48:58.276Z,15.86
2022-09-10T07:51:27.762Z,15.87
2022-09-10T07:53:58.967Z,15.92
2022-09-10T07:56:25.693Z,15.97
2022-09-10T07:58:53.833Z,15.96
2022-09-10T08:01:20.787Z,16.03
2022-09-10T08:03:47.373Z,16.12
2022-09-10T08:06:14.631Z,16.19
2022-09-10T08:08:42.658Z,16.32
2022-09-10T08:11:17.276Z,16.42
2022-09-10T08:13:47.099Z,16.47
2022-09-10T08:16:20.556Z,16.45
2022-09-10T08:18:48.549Z,16.43
2022-09-10T08:21:17.515Z,16.38
2022-09-10T08:23:50.901Z,16.32
2022-09-10T08:26:18.540Z,16.29
2022-09-10T08:28:45.027Z,16.25
2022-09-10T08:31:12.961Z,16.24
2022-09-10T08:33:40.498Z,16.20
2022-09-10T08:36:12.012Z,16.16
2022-09-10T08:38:40.822Z,16.17
2022-09-10T08:41:23.462Z,16.20
2022-09-10T08:44:03.258Z,16.23
2022-09-10T08:47:00.247Z,16.41
2022-09-10T08:49:51.167Z,16.61
2022-09-10T08:52:43.747Z,16.82
2022-09-10T08:55:22.008Z,16.91
2022-09-10T08:58:13.251Z,16.97
2022-09-10T09:00:45.199Z,17.12
2022-09-10T09:03:27.764Z,17.16
2022-09-10T09:06:00.547Z,17.07
2022-09-10T09:08:40.983Z,17.06
2022-09-10T09:11:49.928Z,17.04
2022-09-10T09:15:08.976Z,16.93
2022-09-10T09:18:18.469Z,16.86
2022-09-10T09:20:54.716Z,16.83
2022-09-10T09:23:51.793Z,16.73
2022-09-10T09:26:35.850Z,16.65
2022-09-10T09:29:12.719Z,16.63
2022-09-10T09:31:46.987Z,16.57
2022-09-10T09:34:50.938Z,16.48
2022-09-10T09:37:26.875Z,16.43
2022-09-10T09:40:13.389Z,16.42
2022-09-10T09:42:44.341Z,16.55
2022-09-10T09:45:28.194Z,16.65
2022-09-10T09:47:55.747Z,16.83
2022-09-10T09:50:22.912Z,16.86
2022-09-10T09:52:56.238Z,16.88
2022-09-10T09:55:40.119Z,17.05
2022-09-10T09:58:21.809Z,17.27
2022-09-10T10:01:03.470Z,17.42
2022-09-10T10:03:35.940Z,17.49
2022-09-10T10:06:10.183Z,17.61
2022-09-10T10:08:44.979Z,17.72
2022-09-10T10:11:21.176Z,17.76
2022-09-10T10:13:52.862Z,17.77
2022-09-10T10:16:37.770Z,17.66
2022-09-10T10:19:37.393Z,17.50
2022-09-10T10:22:18.691Z,17.30
2022-09-10T10:24:48.647Z,17.31
2022-09-10T10:27:23.088Z,17.30
2022-09-10T10:30:01.472Z,17.38
2022-09-10T10:32:42.339Z,17.41
2022-09-10T10:35:46.350Z,17.48
2022-09-10T10:38:37.624Z,17.38
2022-09-10T10:41:16.226Z,17.34
2022-09-10T10:44:05.584Z,17.21
2022-09-10T10:46:56.836Z,17.07
2022-09-10T10:49:59.919Z,17.11
2022-09-10T10:52:57.126Z,17.14
2022-09-10T10:55:33.570Z,17.18
2022-09-10T10:58:02.768Z,17.05
2022-09-10T11:00:45.976Z,17.31
2022-09-10T11:03:27.243Z,17.46
2022-09-10T11:06:20.565Z,17.55
2022-09-10T11:09:14.538Z,17.66
2022-09-10T11:11:56.224Z,17.75
2022-09-10T11:14:35.893Z,17.93
2022-09-10T11:17:15.036Z,18.03
2022-09-10T11:20:31.497Z,18.02
2022-09-10T11:23:20.718Z,17.92
2022-09-10T11:26:10.673Z,17.87
2022-09-10T11:28:55.841Z,17.91
2022-09-10T11:31:41.934Z,17.86
2022-09-10T11:34:35.187Z,17.91
2022-09-10T11:37:52.369Z,17.98
2022-09-10T11:40:40.982Z,17.98
2022-09-10T11:43:19.612Z,17.97
2022-09-10T11:46:00.880Z,18.13
2022-09-10T11:48:41.424Z,18.34
2022-09-10T11:51:24.208Z,18.56
2022-09-10T11:53:51.238Z,18.76
2022-09-10T11:56:53.632Z,18.90
2022-09-10T11:59:37.224Z,18.89
2022-09-10T12:02:53.337Z,18.79
2022-09-10T12:05:46.748Z,18.69
2022-09-10T12:08:40.602Z,18.66
2022-09-10T12:11:36.766Z,18.58
2022-09-10T12:14:30.628Z,18.60
2022-09-10T12:17:08.660Z,18.65
2022-09-10T12:19:46.131Z,18.78
2022-09-10T12:22:36.836Z,18.96
2022-09-10T12:25:05.938Z,19.03
2022-09-10T12:27:59.067Z,18.98
2022-09-10T12:30:27.374Z,19.03
2022-09-10T12:32:59.124Z,19.09
2022-09-10T12:35:31.340Z,19.08
2022-09-10T12:38:45.469Z,19.09
2022-09-10T12:41:20.925Z,19.03
2022-09-10T12:43:47.285Z,19.11
2022-09-10T12:46:13.678Z,19.13
2022-09-10T12:48:56.555Z,19.09
2022-09-10T12:51:56.627Z,19.05
2022-09-10T12:54:52.495Z,18.86
2022-09-10T12:57:50.627Z,18.75
2022-09-10T13:00:22.130Z,18.70
2022-09-10T13:02:58.638Z,18.60
2022-09-10T13:05:51.465Z,18.39
2022-09-10T13:08:33.789Z,18.28
2022-09-10T13:11:01.212Z,18.26
2022-09-10T13:14:02.233Z,18.27
2022-09-10T13:16:28.810Z,18.34
2022-09-10T13:19:13.244Z,18.43
2022-09-10T13:21:42.661Z,18.55
2022-09-10T13:24:34.389Z,18.49
2022-09-10T13:27:13.028Z,18.57
2022-09-10T13:29:49.378Z,18.63
2022-09-10T13:32:49.450Z,18.60
2022-09-10T13:35:21.747Z,18.52
2022-09-10T13:38:03.649Z,18.42
2022-09-10T13:40:45.463Z,18.36
2022-09-10T13:43:26.845Z,18.32
2022-09-10T13:46:00.491Z,18.45
2022-09-10T13:48:33.024Z,18.52
2022-09-10T13:51:21.059Z,18.47
2022-09-10T13:53:51.390Z,18.44
2022-09-10T13:56:29.523Z,18.40
2022-09-10T13:59:03.010Z,18.36
2022-09-10T14:01:51.359Z,18.30
2022-09-10T14:04:44.773Z,18.28
2022-09-10T14:07:28.608Z,18.20
2022-09-10T14:10:05.931Z,18.13
2022-09-10T14:12:35.838Z,18.03
2022-09-10T14:15:06.332Z,17.96
2022-09-10T14:17:43.621Z,17.69
2022-09-10T14:20:29.383Z,17.46
2022-09-10T14:23:03.813Z,17.45
2022-09-10T14:25:37.497Z,17.30
2022-09-10T14:28:15.866Z,17.15
2022-09-10T14:30:48.788Z,17.22
2022-09-10T14:33:31.325Z,17.28
2022-09-10T14:35:58.974Z,17.21
2022-09-10T14:38:38.042Z,17.06
2022-09-10T14:41:18.535Z,17.07
2022-09-10T14:43:45.593Z,17.07
2022-09-10T14:46:51.457Z,17.08
2022-09-10T14:49:26.541Z,17.03
2022-09-10T14:51:53.628Z,17.01
2022-09-10T14:54:20.099Z,16.93
2022-09-10T14:56:48.634Z,16.89
2022-09-10T14:59:38.474Z,16.70
2022-09-10T15:02:21.644Z,16.71
2022-09-10T15:04:48.866Z,16.74
2022-09-10T15:07:15.486Z,16.69
2022-09-10T15:09:42.016Z,16.68
2022-09-10T15:12:25.383Z,16.66
2022-09-10T15:14:52.158Z,16.68
2022-09-10T15:17:18.968Z,16.48
2022-09-10T15:19:49.840Z,16.42
2022-09-10T15:22:36.710Z,16.41
2022-09-10T15:25:11.660Z,16.15
2022-09-10T15:27:38.720Z,16.25
2022-09-10T15:30:06.684Z,16.28
2022-09-10T15:32:33.234Z,16.31
2022-09-10T15:34:59.736Z,16.34
2022-09-10T15:37:27.035Z,16.32
2022-09-10T15:39:54.435Z,16.29
2022-09-10T15:42:20.993Z,16.18
2022-09-10T15:44:47.464Z,16.28
2022-09-10T15:47:13.943Z,16.41
2022-09-10T15:49:40.404Z,16.51
2022-09-10T15:52:06.885Z,16.57
2022-09-10T15:54:33.836Z,16.66
2022-09-10T15:57:01.145Z,16.73
2022-09-10T15:59:28.364Z,16.76
2022-09-10T16:01:54.832Z,16.79
2022-09-10T16:04:21.391Z,16.82
2022-09-10T16:06:47.873Z,16.83
2022-09-10T16:09:14.661Z,16.81
2022-09-10T16:11:42.646Z,16.75
2022-09-10T16:14:14.165Z,16.64
2022-09-10T16:16:40.973Z,16.67
2022-09-10T16:19:09.108Z,16.68
2022-09-10T16:21:37.775Z,16.69
2022-09-10T16:24:05.771Z,16.69
2022-09-10T16:26:39.638Z,16.67
2022-09-10T16:29:13.869Z,16.67
2022-09-10T16:31:41.570Z,16.66
2022-09-10T16:34:13.325Z,16.62
2022-09-10T16:36:40.271Z,16.62
2022-09-10T16:39:14.890Z,16.59
2022-09-10T16:41:44.985Z,16.52
2022-09-10T16:44:14.654Z,16.54
2022-09-10T16:46:42.515Z,16.52
2022-09-10T16:49:14.259Z,16.51
2022-09-10T16:51:42.845Z,16.45
2022-09-10T16:54:11.631Z,16.42
2022-09-10T16:56:45.553Z,16.39
2022-09-10T16:59:20.201Z,16.40
2022-09-10T17:01:48.530Z,16.37
2022-09-10T17:04:27.766Z,16.40
2022-09-10T17:06:57.289Z,16.43
2022-09-10T17:09:24.757Z,16.44
2022-09-10T17:11:51.211Z,16.35
2022-09-10T17:14:17.632Z,16.29
2022-09-10T17:16:44.753Z,16.29
2022-09-10T17:19:15.466Z,16.25
2022-09-10T17:21:47.221Z,16.25
2022-09-10T17:24:14.021Z,16.27
2022-09-10T17:26:41.702Z,16.26
2022-09-10T17:29:12.649Z,16.23
2022-09-10T17:31:39.551Z,16.18
2022-09-10T17:34:06.945Z,16.19
2022-09-10T17:36:34.808Z,16.22
2022-09-10T17:39:01.366Z,16.24
2022-09-10T17:41:29.416Z,16.19
2022-09-10T17:43:57.966Z,16.16
2022-09-10T17:46:24.766Z,16.09
2022-09-10T17:48:53.410Z,16.08
2022-09-10T17:51:23.906Z,16.11
2022-09-10T17:53:53.554Z,16.08
2022-09-10T17:56:20.153Z,15.95
2022-09-10T17:58:47.915Z,15.94
2022-09-10T18:01:23.755Z,15.99
2022-09-10T18:03:51.918Z,15.96
2022-09-10T18:06:19.238Z,15.96
2022-09-10T18:08:45.717Z,15.99
2022-09-10T18:11:20.233Z,15.96
2022-09-10T18:13:52.009Z,15.91
2022-09-10T18:16:23.739Z,15.92
2022-09-10T18:18:53.863Z,15.93
2022-09-10T18:21:25.833Z,15.91
2022-09-10T18:24:09.433Z,15.87
2022-09-10T18:26:40.962Z,15.85
2022-09-10T18:29:15.765Z,15.85
2022-09-10T18:31:49.441Z,15.87
2022-09-10T18:34:23.213Z,15.92
2022-09-10T18:36:55.582Z,15.88
2022-09-10T18:39:24.795Z,15.82
2022-09-10T18:41:52.083Z,15.72
2022-09-10T18:44:27.615Z,15.66
2022-09-10T18:46:54.661Z,15.63
2022-09-10T18:49:26.624Z,15.64
2022-09-10T18:51:56.049Z,15.63
2022-09-10T18:54:24.300Z,15.66
2022-09-10T18:56:51.115Z,15.59
2022-09-10T18:59:23.007Z,15.55
2022-09-10T19:01:53.648Z,15.58
2022-09-10T19:04:27.408Z,15.60
2022-09-10T19:06:54.609Z,15.59
2022-09-10T19:09:27.540Z,15.59
2022-09-10T19:11:56.295Z,15.59
2022-09-10T19:14:31.828Z,15.51
2022-09-10T19:17:00.666Z,15.51
2022-09-10T19:19:31.629Z,15.41
2022-09-10T19:22:06.946Z,15.38
2022-09-10T19:27:21.031Z,15.34
2022-09-10T19:29:49.507Z,15.41
2022-09-10T19:32:16.893Z,15.47
2022-09-10T19:34:43.438Z,15.43
2022-09-10T19:37:10.137Z,15.41
2022-09-10T19:39:36.789Z,15.42
2022-09-10T19:42:03.471Z,15.45
2022-09-10T19:44:29.934Z,15.51
2022-09-10T19:46:56.392Z,15.59
2022-09-10T19:49:22.845Z,15.64
2022-09-10T19:51:49.352Z,15.59
2022-09-10T19:54:16.358Z,15.59
2022-09-10T19:56:43.647Z,15.63
2022-09-10T19:59:10.489Z,15.59
2022-09-10T20:01:42.119Z,15.56
2022-09-10T20:04:11.580Z,15.57
2022-09-10T20:06:39.180Z,15.49
2022-09-10T20:09:08.538Z,15.46
2022-09-10T20:11:35.773Z,15.46
2022-09-10T20:14:09.426Z,15.35
2022-09-10T20:16:39.190Z,15.38
2022-09-10T20:19:07.139Z,15.47
2022-09-10T20:21:35.625Z,15.52
2022-09-10T20:24:06.888Z,15.59
2022-09-10T20:26:40.986Z,15.63
2022-09-10T20:29:12.349Z,15.61
2022-09-10T20:31:41.035Z,15.59
2022-09-10T20:34:18.371Z,15.55
2022-09-10T20:36:45.192Z,15.51
2022-09-10T20:39:15.242Z,15.51
2022-09-10T20:41:43.629Z,15.47
2022-09-10T20:44:14.179Z,15.43
2022-09-10T20:46:41.973Z,15.45
2022-09-10T20:49:12.000Z,15.46
2022-09-10T20:51:40.356Z,15.50
2022-09-10T20:54:11.675Z,15.53
2022-09-10T20:56:38.358Z,15.55
2022-09-10T20:59:04.810Z,15.52
2022-09-10T21:01:31.346Z,15.44
2022-09-10T21:04:01.175Z,15.40
2022-09-10T21:06:31.456Z,15.43
2022-09-10T21:08:59.461Z,15.48
2022-09-10T21:11:30.634Z,15.44
2022-09-10T21:14:01.777Z,15.38
2022-09-10T21:16:38.563Z,15.35
2022-09-10T21:19:10.241Z,15.33
2022-09-10T21:21:42.053Z,15.39
2022-09-10T21:24:22.316Z,15.39
2022-09-10T21:26:50.107Z,15.37
2022-09-10T21:29:20.510Z,15.38
2022-09-10T21:31:50.364Z,15.38
2022-09-10T21:34:17.317Z,15.40
2022-09-10T21:36:43.986Z,15.40
2022-09-10T21:39:16.514Z,15.38
2022-09-10T21:41:47.148Z,15.42
2022-09-10T21:44:20.288Z,15.47
2022-09-10T21:46:48.519Z,15.50
2022-09-10T21:49:16.335Z,15.53
2022-09-10T21:51:43.269Z,15.54
2022-09-10T21:54:22.056Z,15.49
2022-09-10T21:56:50.446Z,15.50
2022-09-10T21:59:18.297Z,15.46
2022-09-10T22:01:46.794Z,15.46
2022-09-10T22:04:18.869Z,15.40
2022-09-10T22:06:48.386Z,15.36
2022-09-10T22:09:16.028Z,15.37
2022-09-10T22:11:50.146Z,15.37
2022-09-10T22:14:23.464Z,15.30
2022-09-10T22:16:51.285Z,15.29
2022-09-10T22:19:24.264Z,15.30
2022-09-10T22:21:53.808Z,15.21
2022-09-10T22:24:20.337Z,15.09
2022-09-10T22:26:47.313Z,15.14
2022-09-10T22:29:17.843Z,15.17
2022-09-10T22:31:44.926Z,15.24
2022-09-10T22:34:14.462Z,15.31
2022-09-10T22:36:44.199Z,15.33
2022-09-10T22:39:17.852Z,15.30
2022-09-10T22:41:45.957Z,15.29
2022-09-10T22:44:13.164Z,15.24
2022-09-10T22:46:41.213Z,15.20
2022-09-10T22:49:08.666Z,15.17
2022-09-10T22:51:40.724Z,15.08
2022-09-10T22:54:08.331Z,15.03
2022-09-10T22:56:38.084Z,15.05
2022-09-10T22:59:06.596Z,15.08
2022-09-10T23:01:38.053Z,15.12
2022-09-10T23:04:07.610Z,15.12
2022-09-10T23:06:37.411Z,15.03
2022-09-10T23:09:12.349Z,15.06
2022-09-10T23:11:40.335Z,15.12
2022-09-10T23:14:12.891Z,15.13
2022-09-10T23:16:48.261Z,15.08
2022-09-10T23:19:19.059Z,14.96
2022-09-10T23:21:49.426Z,14.80
2022-09-10T23:24:20.282Z,14.76
2022-09-10T23:26:47.071Z,14.78
2022-09-10T23:29:17.798Z,14.70
2022-09-10T23:31:46.227Z,14.63
2022-09-10T23:34:16.919Z,14.60
2022-09-10T23:36:46.605Z,14.59
2022-09-10T23:39:20.328Z,14.51
2022-09-10T23:41:48.637Z,14.48
2022-09-10T23:44:16.092Z,14.52
2022-09-10T23:46:43.179Z,14.53
2022-09-10T23:49:09.991Z,14.45
2022-09-10T23:51:36.999Z,14.39
2022-09-10T23:54:04.063Z,14.30
2022-09-10T23:56:31.771Z,14.22
2022-09-10T23:58:59.443Z,14.25
